createdAt,value
2022-10-20T00:00:53.688Z,100201.59
2022-10-20T00:03:42.194Z,100213.91
2022-10-20T00:06:33.119Z,100217.41
2022-10-20T00:09:21.484Z,100214.72
2022-10-20T00:12:09.883Z,100203.50
2022-10-20T00:14:58.275Z,100206.09
2022-10-20T00:17:46.663Z,100201.75
2022-10-20T00:20:35.060Z,100202.59
2022-10-20T00:23:25.005Z,100199.25
2022-10-20T00:26:14.992Z,100188.13
2022-10-20T00:29:04.079Z,100195.06
2022-10-20T00:31:52.543Z,100188.25
2022-10-20T00:34:41.114Z,100190.13
2022-10-20T00:37:29.476Z,100190.34
2022-10-20T00:40:19.345Z,100191.34
2022-10-20T00:43:10.996Z,100176.72
2022-10-20T00:45:59.335Z,100175.19
2022-10-20T00:48:50.197Z,100160.69
2022-10-20T00:51:38.545Z,100169.28
2022-10-20T00:54:27.759Z,100164.22
2022-10-20T00:57:17.629Z,100166.88
2022-10-20T01:00:08.779Z,100165.09
2022-10-20T01:02:59.463Z,100169.53
2022-10-20T01:05:47.811Z,100164.34
2022-10-20T01:08:36.192Z,100163.38
2022-10-20T01:11:33.126Z,100155.66
2022-10-20T01:14:35.799Z,100151.38
2022-10-20T01:17:36.477Z,100144.47
2022-10-20T01:21:00.990Z,100141.00
2022-10-20T01:24:31.972Z,100128.38
2022-10-20T01:27:43.824Z,100131.88
2022-10-20T01:30:32.672Z,100138.84
2022-10-20T01:33:26.117Z,100143.94
2022-10-20T01:36:17.991Z,100163.00
2022-10-20T01:39:08.678Z,100164.69
2022-10-20T01:41:58.271Z,100164.69
2022-10-20T01:44:48.020Z,100154.31
2022-10-20T01:47:36.652Z,100145.78
2022-10-20T01:50:25.256Z,100133.91
2022-10-20T01:53:13.964Z,100127.25
2022-10-20T01:56:02.509Z,100123.19
2022-10-20T01:59:12.173Z,100115.47
2022-10-20T02:02:14.857Z,100106.19
2022-10-20T02:05:25.953Z,100107.13
2022-10-20T02:08:17.045Z,100114.13
2022-10-20T02:11:06.691Z,100102.75
2022-10-20T02:13:56.280Z,100096.75
2022-10-20T02:16:47.548Z,100083.78
2022-10-20T02:19:40.354Z,100082.84
2022-10-20T02:22:28.746Z,100079.31
2022-10-20T02:25:17.286Z,100074.13
2022-10-20T02:28:05.994Z,100068.94
2022-10-20T02:30:54.332Z,100058.56
2022-10-20T02:33:42.737Z,100057.75
2022-10-20T02:36:32.481Z,100068.94
2022-10-20T02:39:20.872Z,100072.28
2022-10-20T02:42:09.947Z,100067.88
2022-10-20T02:44:58.360Z,100073.06
2022-10-20T02:47:46.794Z,100077.22
2022-10-20T02:50:35.410Z,100083.03
2022-10-20T02:53:25.145Z,100080.34
2022-10-20T02:56:13.691Z,100072.56
2022-10-20T02:59:02.102Z,100066.72
2022-10-20T03:01:51.224Z,100074.56
2022-10-20T03:04:39.669Z,100074.75
2022-10-20T03:07:28.274Z,100068.63
2022-10-20T03:10:18.240Z,100061.78
2022-10-20T03:13:06.651Z,100075.56
2022-10-20T03:15:55.047Z,100073.91
2022-10-20T03:18:43.460Z,100075.66
2022-10-20T03:21:31.831Z,100082.53
2022-10-20T03:24:20.225Z,100076.41
2022-10-20T03:27:09.917Z,100070.38
2022-10-20T03:29:58.375Z,100068.81
2022-10-20T03:32:46.875Z,100075.81
2022-10-20T03:35:35.247Z,100070.81
2022-10-20T03:38:23.664Z,100073.56
2022-10-20T03:41:12.255Z,100065.00
2022-10-20T03:44:01.956Z,100047.03
2022-10-20T03:46:50.324Z,100040.16
2022-10-20T03:49:38.745Z,100040.28
2022-10-20T03:52:27.150Z,100029.97
2022-10-20T03:55:15.782Z,100017.94
2022-10-20T03:58:04.149Z,100021.44
2022-10-20T04:00:53.965Z,100007.72
2022-10-20T04:03:42.362Z,99998.13
2022-10-20T04:06:31.842Z,99990.34
2022-10-20T04:09:20.243Z,99988.69
2022-10-20T04:12:08.607Z,99985.16
2022-10-20T04:14:57.029Z,99984.16
2022-10-20T04:17:46.823Z,99981.47
2022-10-20T04:20:36.578Z,99987.41
2022-10-20T04:23:26.762Z,100001.03
2022-10-20T04:26:16.345Z,100011.25
2022-10-20T04:29:04.741Z,100017.09
2022-10-20T04:31:53.240Z,100016.13
2022-10-20T04:34:42.929Z,100014.28
2022-10-20T04:37:31.332Z,100013.28
2022-10-20T04:40:19.708Z,100012.34
2022-10-20T04:43:08.076Z,100005.25
2022-10-20T04:46:01.591Z,99999.88
2022-10-20T04:48:52.397Z,99983.47
2022-10-20T04:51:42.121Z,99983.63
2022-10-20T04:54:30.516Z,99964.00
2022-10-20T04:57:19.184Z,99969.34
2022-10-20T05:00:09.201Z,99966.09
2022-10-20T05:02:57.673Z,99958.59
2022-10-20T05:05:46.282Z,99964.75
2022-10-20T05:08:36.094Z,99962.25
2022-10-20T05:11:26.376Z,99956.38
2022-10-20T05:14:14.764Z,99959.81
2022-10-20T05:17:05.296Z,99960.75
2022-10-20T05:19:56.314Z,99954.81
2022-10-20T05:22:44.666Z,99947.84
2022-10-20T05:25:36.878Z,99945.38
2022-10-20T05:28:25.556Z,99929.31
2022-10-20T05:31:14.108Z,99922.44
2022-10-20T05:34:02.537Z,99916.63
2022-10-20T05:36:53.126Z,99907.22
2022-10-20T05:39:42.464Z,99887.50
2022-10-20T05:42:32.302Z,99900.72
2022-10-20T05:45:20.702Z,99929.41
2022-10-20T05:48:09.091Z,99931.31
2022-10-20T05:50:57.497Z,99923.59
2022-10-20T05:53:46.977Z,99921.13
2022-10-20T05:56:35.356Z,99930.72
2022-10-20T05:59:25.353Z,99921.38
2022-10-20T06:02:13.717Z,99924.84
2022-10-20T06:04:41.772Z,99914.59
2022-10-20T06:07:10.130Z,99919.94
2022-10-20T06:09:38.516Z,99920.03
2022-10-20T06:14:41.554Z,99923.44
2022-10-20T06:17:09.654Z,99920.75
2022-10-20T06:19:37.723Z,99922.53
2022-10-20T06:22:06.867Z,99926.88
2022-10-20T06:24:35.312Z,99930.28
2022-10-20T06:27:03.501Z,99936.31
2022-10-20T06:29:31.788Z,99940.66
2022-10-20T06:32:01.266Z,99953.34
2022-10-20T06:34:29.461Z,99970.59
2022-10-20T06:36:57.533Z,99979.13
2022-10-20T06:39:25.692Z,99988.47
2022-10-20T06:41:54.800Z,100003.72
2022-10-20T06:44:24.137Z,99996.44
2022-10-20T06:46:53.287Z,100008.03
2022-10-20T06:49:22.844Z,100000.88
2022-10-20T06:51:51.105Z,99996.28
2022-10-20T06:54:19.312Z,99996.84
2022-10-20T06:56:47.432Z,100000.81
2022-10-20T06:59:15.503Z,100013.84
2022-10-20T07:01:43.698Z,100015.41
2022-10-20T07:04:14.704Z,100024.06
2022-10-20T07:06:45.124Z,100023.09
2022-10-20T07:09:16.601Z,100015.38
2022-10-20T07:11:44.805Z,100002.13
2022-10-20T07:14:13.923Z,100017.34
2022-10-20T07:16:42.071Z,100020.34
2022-10-20T07:19:10.272Z,100012.69
2022-10-20T07:21:41.650Z,100006.59
2022-10-20T07:24:12.471Z,99988.06
2022-10-20T07:26:41.877Z,99971.13
2022-10-20T07:29:10.552Z,99975.41
2022-10-20T07:31:40.314Z,99967.97
2022-10-20T07:34:26.896Z,99951.50
2022-10-20T07:36:56.266Z,99957.13
2022-10-20T07:39:26.056Z,99959.59
2022-10-20T07:41:54.200Z,99961.06
2022-10-20T07:44:22.255Z,99970.72
2022-10-20T07:46:50.421Z,99975.41
2022-10-20T07:49:43.337Z,99982.13
2022-10-20T07:52:06.747Z,99987.88
2022-10-20T07:54:36.313Z,99980.16
2022-10-20T07:57:04.609Z,99966.50
2022-10-20T07:59:32.688Z,99970.59
2022-10-20T08:02:00.966Z,99971.44
2022-10-20T08:04:31.315Z,99959.31
2022-10-20T08:06:59.512Z,99971.19
2022-10-20T08:09:27.586Z,99954.75
2022-10-20T08:11:57.025Z,99937.84
2022-10-20T08:14:27.608Z,99938.78
2022-10-20T08:17:05.351Z,99945.56
2022-10-20T08:19:49.781Z,99950.97
2022-10-20T08:22:19.162Z,99956.06
2022-10-20T08:24:47.313Z,99964.06
2022-10-20T08:27:16.772Z,99953.88
2022-10-20T08:29:50.880Z,99950.31
2022-10-20T08:32:28.565Z,99950.34
2022-10-20T08:34:56.602Z,99948.38
2022-10-20T08:37:24.747Z,99961.50
2022-10-20T08:39:52.818Z,99950.56
2022-10-20T08:42:22.348Z,99949.28
2022-10-20T08:44:50.454Z,99955.09
2022-10-20T08:47:29.142Z,99946.53
2022-10-20T08:50:00.618Z,99952.94
2022-10-20T08:52:28.700Z,99936.41
2022-10-20T08:54:57.820Z,99936.19
2022-10-20T08:57:28.697Z,99938.00
2022-10-20T09:00:00.249Z,99941.22
2022-10-20T09:02:28.392Z,99947.41
2022-10-20T09:04:58.707Z,99946.53
2022-10-20T09:07:29.386Z,99945.88
2022-10-20T09:10:04.099Z,99955.25
2022-10-20T09:12:33.953Z,99962.50
2022-10-20T09:15:02.543Z,99958.91
2022-10-20T09:17:30.690Z,99951.94
2022-10-20T09:19:58.839Z,99952.09
2022-10-20T09:22:33.352Z,99938.94
2022-10-20T09:25:03.800Z,99947.50
2022-10-20T09:27:35.699Z,99956.53
2022-10-20T09:30:19.424Z,99958.91
2022-10-20T09:32:56.322Z,99952.59
2022-10-20T09:35:27.243Z,99962.72
2022-10-20T09:38:03.993Z,99971.78
2022-10-20T09:40:32.472Z,99978.88
2022-10-20T09:43:04.367Z,99985.31
2022-10-20T09:45:33.170Z,100002.28
2022-10-20T09:48:06.612Z,99993.34
2022-10-20T09:50:36.456Z,99994.06
2022-10-20T09:53:07.248Z,99990.72
2022-10-20T09:55:37.412Z,99979.25
2022-10-20T09:58:07.070Z,99982.19
2022-10-20T10:00:38.390Z,99973.63
2022-10-20T10:03:21.146Z,99979.13
2022-10-20T10:05:51.220Z,99971.69
2022-10-20T10:08:19.892Z,99965.00
2022-10-20T10:11:02.765Z,99970.44
2022-10-20T10:13:37.062Z,99976.63
2022-10-20T10:16:07.684Z,99968.53
2022-10-20T10:18:36.438Z,99964.50
2022-10-20T10:21:06.217Z,99951.84
2022-10-20T10:23:36.482Z,99954.06
2022-10-20T10:26:04.923Z,99944.69
2022-10-20T10:28:36.942Z,99938.47
2022-10-20T10:31:20.655Z,99928.50
2022-10-20T10:33:51.005Z,99920.59
2022-10-20T10:36:31.389Z,99904.84
2022-10-20T10:38:59.902Z,99892.66
2022-10-20T10:44:41.919Z,99894.13
2022-10-20T10:47:24.917Z,99884.38
2022-10-20T10:49:58.758Z,99891.88
2022-10-20T10:52:37.721Z,99879.84
2022-10-20T10:55:30.569Z,99881.47
2022-10-20T10:58:09.854Z,99886.13
2022-10-20T11:00:44.754Z,99863.69
2022-10-20T11:03:28.336Z,99869.06
2022-10-20T11:06:04.194Z,99863.94
2022-10-20T11:08:42.369Z,99858.13
2022-10-20T11:11:19.049Z,99862.28
2022-10-20T11:13:52.019Z,99870.22
2022-10-20T11:16:29.604Z,99872.78
2022-10-20T11:19:32.400Z,99881.03
2022-10-20T11:22:11.886Z,99889.94
2022-10-20T11:24:48.756Z,99892.50
2022-10-20T11:27:19.153Z,99891.78
2022-10-20T11:29:48.649Z,99891.28
2022-10-20T11:32:26.699Z,99898.59
2022-10-20T11:35:02.239Z,99882.72
2022-10-20T11:37:31.999Z,99892.41
2022-10-20T11:40:08.765Z,99885.16
2022-10-20T11:42:42.784Z,99877.84
2022-10-20T11:45:30.647Z,99873.56
2022-10-20T11:48:05.465Z,99868.69
2022-10-20T11:50:33.600Z,99871.91
2022-10-20T11:53:26.385Z,99872.97
2022-10-20T11:56:09.081Z,99848.72
2022-10-20T11:59:04.848Z,99865.25
2022-10-20T12:01:36.353Z,99875.72
2022-10-20T12:04:46.362Z,99889.72
2022-10-20T12:07:40.410Z,99900.44
2022-10-20T12:10:31.194Z,99906.59
2022-10-20T12:13:07.889Z,99908.84
2022-10-20T12:15:36.023Z,99905.41
2022-10-20T12:18:05.370Z,99904.34
2022-10-20T12:20:55.091Z,99907.81
2022-10-20T12:24:04.881Z,99901.84
2022-10-20T12:27:01.490Z,99898.38
2022-10-20T12:29:54.836Z,99900.19
2022-10-20T12:33:15.863Z,99891.59
2022-10-20T12:36:00.864Z,99876.03
2022-10-20T12:38:29.729Z,99865.69
2022-10-20T12:41:01.651Z,99861.75
2022-10-20T12:43:45.904Z,99861.19
2022-10-20T12:46:21.111Z,99870.09
2022-10-20T12:48:56.481Z,99861.63
2022-10-20T12:51:36.070Z,99844.53
2022-10-20T12:54:08.417Z,99840.47
2022-10-20T12:56:38.967Z,99821.97
2022-10-20T12:59:39.239Z,99822.31
2022-10-20T13:02:48.923Z,99854.66
2022-10-20T13:05:48.455Z,99835.63
2022-10-20T13:08:27.034Z,99848.19
2022-10-20T13:10:55.174Z,99849.47
2022-10-20T13:13:44.232Z,99843.63
2022-10-20T13:16:20.249Z,99847.28
2022-10-20T13:18:50.485Z,99841.25
2022-10-20T13:21:32.497Z,99851.69
2022-10-20T13:24:15.134Z,99838.50
2022-10-20T13:26:51.189Z,99835.06
2022-10-20T13:29:23.630Z,99831.50
2022-10-20T13:32:04.294Z,99833.91
2022-10-20T13:34:38.670Z,99837.44
2022-10-20T13:37:22.824Z,99823.66
2022-10-20T13:39:58.993Z,99832.91
2022-10-20T13:42:41.539Z,99812.69
2022-10-20T13:45:18.664Z,99798.94
2022-10-20T13:47:52.392Z,99809.59
2022-10-20T13:50:23.464Z,99808.16
2022-10-20T13:52:53.586Z,99826.13
2022-10-20T13:55:24.025Z,99841.19
2022-10-20T13:57:56.846Z,99840.66
2022-10-20T14:00:27.610Z,99828.28
2022-10-20T14:02:59.472Z,99842.28
2022-10-20T14:05:28.738Z,99838.13
2022-10-20T14:07:57.089Z,99828.75
2022-10-20T14:10:30.255Z,99829.06
2022-10-20T14:12:58.336Z,99825.84
2022-10-20T14:15:30.866Z,99826.38
2022-10-20T14:18:04.816Z,99826.72
2022-10-20T14:20:38.597Z,99831.31
2022-10-20T14:23:06.997Z,99829.84
2022-10-20T14:25:36.580Z,99829.84
2022-10-20T14:28:06.777Z,99805.66
2022-10-20T14:30:40.094Z,99819.66
2022-10-20T14:33:14.475Z,99815.59
2022-10-20T14:35:43.458Z,99815.91
2022-10-20T14:38:18.198Z,99815.28
2022-10-20T14:40:52.450Z,99817.06
2022-10-20T14:43:22.131Z,99822.38
2022-10-20T14:45:54.676Z,99822.38
2022-10-20T14:48:22.896Z,99819.13
2022-10-20T14:50:51.185Z,99797.25
2022-10-20T14:53:29.309Z,99796.53
2022-10-20T14:56:00.647Z,99780.28
2022-10-20T14:58:35.491Z,99779.44
2022-10-20T15:01:27.643Z,99781.09
2022-10-20T15:04:15.049Z,99775.16
2022-10-20T15:06:43.380Z,99781.22
2022-10-20T15:09:24.893Z,99777.56
2022-10-20T15:11:54.440Z,99771.41
2022-10-20T15:14:22.738Z,99770.34
2022-10-20T15:16:51.051Z,99768.59
2022-10-20T15:19:35.008Z,99774.63
2022-10-20T15:22:10.501Z,99758.19
2022-10-20T15:24:39.038Z,99759.75
2022-10-20T15:27:12.204Z,99758.78
2022-10-20T15:29:40.452Z,99763.16
2022-10-20T15:32:09.743Z,99749.19
2022-10-20T15:34:37.913Z,99751.69
2022-10-20T15:37:06.039Z,99750.53
2022-10-20T15:39:35.520Z,99740.84
2022-10-20T15:42:05.407Z,99754.69
2022-10-20T15:44:35.233Z,99762.50
2022-10-20T15:47:05.099Z,99769.28
2022-10-20T15:49:33.312Z,99762.09
2022-10-20T15:52:01.434Z,99757.41
2022-10-20T15:54:29.684Z,99761.44
2022-10-20T15:56:57.893Z,99777.81
2022-10-20T15:59:26.576Z,99769.03
2022-10-20T16:01:56.115Z,99763.97
2022-10-20T16:04:26.374Z,99764.06
2022-10-20T16:06:58.928Z,99764.50
2022-10-20T16:09:27.376Z,99758.25
2022-10-20T16:11:55.516Z,99752.75
2022-10-20T16:14:24.235Z,99757.56
2022-10-20T16:16:52.346Z,99762.13
2022-10-20T16:19:21.933Z,99770.19
2022-10-20T16:21:49.991Z,99770.59
2022-10-20T16:24:18.139Z,99770.72
2022-10-20T16:26:46.252Z,99767.41
2022-10-20T16:29:14.388Z,99756.25
2022-10-20T16:31:42.566Z,99765.13
2022-10-20T16:34:10.687Z,99747.81
2022-10-20T16:36:40.103Z,99741.88
2022-10-20T16:39:08.377Z,99741.16
2022-10-20T16:41:36.468Z,99742.28
2022-10-20T16:44:06.679Z,99747.00
2022-10-20T16:46:34.856Z,99759.50
2022-10-20T16:49:02.954Z,99755.44
2022-10-20T16:51:31.101Z,99751.19
2022-10-20T16:54:03.304Z,99744.53
2022-10-20T16:56:31.805Z,99767.00
2022-10-20T16:59:00.590Z,99772.22
2022-10-20T17:01:28.836Z,99771.28
2022-10-20T17:03:57.026Z,99769.50
2022-10-20T17:06:26.072Z,99756.59
2022-10-20T17:08:54.541Z,99752.34
2022-10-20T17:11:25.522Z,99744.72
2022-10-20T17:13:53.647Z,99763.06
2022-10-20T17:16:26.141Z,99759.72
2022-10-20T17:18:56.665Z,99771.94
2022-10-20T17:21:24.797Z,99762.22
2022-10-20T17:23:52.942Z,99760.25
2022-10-20T17:26:24.584Z,99742.84
2022-10-20T17:28:55.016Z,99742.84
2022-10-20T17:31:23.122Z,99738.78
2022-10-20T17:33:51.439Z,99738.91
2022-10-20T17:36:25.736Z,99751.09
2022-10-20T17:38:58.519Z,99745.16
2022-10-20T17:41:27.987Z,99731.09
2022-10-20T17:43:56.118Z,99732.66
2022-10-20T17:46:24.339Z,99735.16
2022-10-20T17:48:52.508Z,99759.31
2022-10-20T17:51:21.947Z,99750.34
2022-10-20T17:53:51.495Z,99734.63
2022-10-20T17:56:20.636Z,99742.66
2022-10-20T17:58:51.255Z,99754.31
2022-10-20T18:01:20.974Z,99760.06
2022-10-20T18:03:50.944Z,99759.50
2022-10-20T18:06:20.300Z,99751.00
2022-10-20T18:08:48.607Z,99732.06
2022-10-20T18:11:18.400Z,99733.94
2022-10-20T18:13:46.653Z,99711.63
2022-10-20T18:16:18.113Z,99697.88
2022-10-20T18:18:46.339Z,99707.66
2022-10-20T18:21:16.456Z,99715.03
2022-10-20T18:23:45.820Z,99729.91
2022-10-20T18:26:15.243Z,99734.50
2022-10-20T18:28:45.840Z,99726.59
2022-10-20T18:31:19.994Z,99720.69
2022-10-20T18:33:48.191Z,99723.88
2022-10-20T18:36:18.156Z,99724.94
2022-10-20T18:38:47.128Z,99716.31
2022-10-20T18:41:16.688Z,99704.34
2022-10-20T18:43:45.707Z,99696.53
2022-10-20T18:46:14.083Z,99704.13
2022-10-20T18:48:43.627Z,99693.94
2022-10-20T18:51:13.672Z,99684.44
2022-10-20T18:53:42.656Z,99663.75
2022-10-20T18:56:14.199Z,99675.00
2022-10-20T18:58:43.627Z,99669.78
2022-10-20T19:01:13.078Z,99668.00
2022-10-20T19:03:42.951Z,99657.69
2022-10-20T19:06:12.897Z,99656.06
2022-10-20T19:08:41.493Z,99641.28
2022-10-20T19:11:11.122Z,99638.16
2022-10-20T19:13:39.231Z,99654.50
2022-10-20T19:16:09.308Z,99651.03
2022-10-20T19:18:39.333Z,99652.94
2022-10-20T19:21:09.414Z,99648.56
2022-10-20T19:23:41.346Z,99640.88
2022-10-20T19:26:11.145Z,99626.94
2022-10-20T19:28:40.489Z,99642.63
2022-10-20T19:31:21.010Z,99624.63
2022-10-20T19:33:50.715Z,99629.72
2022-10-20T19:36:20.244Z,99644.50
2022-10-20T19:38:48.374Z,99656.47
2022-10-20T19:41:16.774Z,99658.97
2022-10-20T19:43:44.866Z,99638.78
2022-10-20T19:46:14.646Z,99616.22
2022-10-20T19:48:42.810Z,99621.28
2022-10-20T19:51:10.995Z,99631.69
2022-10-20T19:53:40.576Z,99655.84
2022-10-20T19:56:09.441Z,99648.75
2022-10-20T19:58:40.280Z,99645.25
2022-10-20T20:01:11.203Z,99651.78
2022-10-20T20:03:58.491Z,99684.53
2022-10-20T20:06:46.893Z,99703.31
2022-10-20T20:09:36.645Z,99703.53
2022-10-20T20:12:25.041Z,99695.19
2022-10-20T20:15:13.466Z,99694.03
2022-10-20T20:18:02.150Z,99687.91
2022-10-20T20:20:50.620Z,99679.47
2022-10-20T20:23:58.408Z,99676.03
2022-10-20T20:26:49.996Z,99683.84
2022-10-20T20:29:38.371Z,99683.84
2022-10-20T20:32:26.851Z,99676.03
2022-10-20T20:35:15.429Z,99668.09
2022-10-20T20:38:03.795Z,99667.41
2022-10-20T20:40:52.207Z,99664.91
2022-10-20T20:43:45.019Z,99667.59
2022-10-20T20:46:33.975Z,99669.38
2022-10-20T20:49:22.354Z,99664.28
2022-10-20T20:52:10.693Z,99656.47
2022-10-20T20:54:59.140Z,99656.69
2022-10-20T20:57:47.506Z,99650.31
2022-10-20T21:00:37.187Z,99647.47
2022-10-20T21:03:25.588Z,99643.13
2022-10-20T21:06:14.968Z,99646.66
2022-10-20T21:09:03.400Z,99643.97
2022-10-20T21:11:51.892Z,99629.19
2022-10-20T21:14:40.212Z,99623.25
2022-10-20T21:17:29.922Z,99609.50
2022-10-20T21:20:18.450Z,99602.34
2022-10-20T21:23:06.839Z,99600.53
2022-10-20T21:25:55.208Z,99605.91
2022-10-20T21:28:44.094Z,99606.06
2022-10-20T21:31:32.521Z,99578.88
2022-10-20T21:34:22.419Z,99565.41
2022-10-20T21:37:10.805Z,99557.34
2022-10-20T21:39:59.267Z,99566.59
2022-10-20T21:42:47.629Z,99551.78
2022-10-20T21:45:36.026Z,99554.78
2022-10-20T21:48:24.630Z,99568.63
2022-10-20T21:51:16.168Z,99606.25
2022-10-20T21:54:06.152Z,99614.88
2022-10-20T21:56:54.985Z,99643.00
2022-10-20T21:59:46.717Z,99639.09
2022-10-20T22:02:35.278Z,99638.75
2022-10-20T22:05:23.730Z,99627.16
2022-10-20T22:08:13.451Z,99610.34
2022-10-20T22:11:04.632Z,99612.22
2022-10-20T22:13:53.101Z,99608.31
2022-10-20T22:16:42.931Z,99602.50
2022-10-20T22:19:31.318Z,99601.88
2022-10-20T22:22:19.712Z,99598.91
2022-10-20T22:25:10.605Z,99580.06
2022-10-20T22:27:58.957Z,99578.63
2022-10-20T22:30:47.396Z,99572.59
2022-10-20T22:33:35.859Z,99562.34
2022-10-20T22:36:24.293Z,99557.78
2022-10-20T22:42:02.693Z,99570.56
2022-10-20T22:44:51.086Z,99583.50
2022-10-20T22:47:39.463Z,99572.16
2022-10-20T22:50:27.882Z,99555.09
2022-10-20T22:53:16.258Z,99559.97
2022-10-20T22:56:09.569Z,99593.25
2022-10-20T22:58:59.406Z,99593.06
2022-10-20T23:01:47.828Z,99618.06
2022-10-20T23:04:36.290Z,99627.41
2022-10-20T23:07:24.815Z,99624.72
2022-10-20T23:10:13.203Z,99630.63
2022-10-20T23:13:01.588Z,99631.56
2022-10-20T23:15:52.737Z,99647.09
2022-10-20T23:18:41.148Z,99641.19
2022-10-20T23:21:29.582Z,99657.28
2022-10-20T23:24:18.253Z,99648.16
2022-10-20T23:27:06.616Z,99644.09
2022-10-20T23:29:54.982Z,99693.84
2022-10-20T23:32:44.697Z,99689.09
2022-10-20T23:35:35.591Z,99698.66
2022-10-20T23:38:23.983Z,99693.59
2022-10-20T23:41:12.346Z,99686.34
2022-10-20T23:44:00.720Z,99695.94
2022-10-20T23:46:49.271Z,99671.66
2022-10-20T23:49:38.997Z,99654.69
2022-10-20T23:52:27.426Z,99646.06
2022-10-20T23:55:16.029Z,99647.09
2022-10-20T23:58:04.394Z,99631.56
